Time,TemperatureF,DewpointF,PressureIn,WindDirection,WindDirectionDegrees,WindSpeedMPH,WindSpeedGustMPH,Humidity,HourlyPrecipIn,Conditions,Clouds,dailyrainin,SolarRadiationWatts/m^2,SoftwareType,DateUTC
2013-05-15 00:00:00,49.0,-99.9,44.89,West,281,4.0,10.0,-999,-99.99,,,0.00,0.000000,,2013-05-15 07:00:00,
2013-05-15 01:00:00,48.0,-99.9,44.89,WNW,284,4.0,13.0,-999,-99.99,,,0.00,0.000000,,2013-05-15 08:00:00,
2013-05-15 02:00:00,48.0,-99.9,44.89,West,280,4.0,14.0,-999,-99.99,,,0.00,0.000000,,2013-05-15 09:00:00,
2013-05-15 03:00:00,48.0,-99.9,44.89,WNW,283,4.0,13.0,-999,-99.99,,,-99.99,0.000000,,2013-05-15 10:00:00,
2013-05-15 04:00:00,47.0,-99.9,44.89,West,281,5.0,11.0,-999,-99.99,,,0.00,0.000000,,2013-05-15 11:00:00,
2013-05-15 05:00:00,46.0,-99.9,44.89,WNW,283,4.0,13.0,-999,-99.99,,,0.00,0.000000,,2013-05-15 12:00:00,
2013-05-15 06:00:00,48.0,-99.9,44.89,WNW,289,6.0,13.0,-999,-99.99,,,0.00,8.900000,,2013-05-15 13:00:00,
2013-05-15 07:00:00,50.0,-99.9,44.89,WNW,293,6.0,14.0,-999,-99.99,,,0.00,67.199997,,2013-05-15 14:00:00,
2013-05-15 08:00:00,52.0,-99.9,44.89,WNW,285,6.0,14.0,-999,-99.99,,,0.00,368.700012,,2013-05-15 15:00:00,
2013-05-15 09:00:00,53.0,-99.9,44.89,WNW,296,6.0,16.0,-999,-99.99,,,0.00,590.700012,,2013-05-15 16:00:00,
2013-05-15 10:00:00,55.0,-99.9,44.89,WNW,297,6.0,15.0,-999,-99.99,,,-99.99,800.700012,,2013-05-15 17:00:00,
2013-05-15 11:00:00,56.0,-99.9,44.89,WNW,299,7.0,18.0,-999,-99.99,,,-99.99,964.299988,,2013-05-15 18:00:00,
2013-05-15 12:00:00,56.0,-99.9,44.89,WNW,303,5.0,14.0,-999,-99.99,,,0.00,,,2013-05-15 19:00:00,
2013-05-15 14:00:00,57.0,-99.9,44.89,WNW,296,4.0,16.0,-999,-99.99,,,-99.99,703.599976,,2013-05-15 21:00:00,
2013-05-15 14:55:00,57.0,-99.9,-100.00,WNW,296,4.0,16.0,-999,-99.99,,,-99.99,703.599976,,2013-05-15 21:55:00,
2013-05-15 15:00:00,58.0,-99.9,44.89,WNW,298,5.0,17.0,-999,-99.99,,,-99.99,820.200012,,2013-05-15 22:00:00,
2013-05-15 15:53:00,58.0,-99.9,-100.00,WNW,298,5.0,17.0,-999,-99.99,,,-99.99,820.200012,,2013-05-15 22:53:00,
2013-05-15 16:00:00,58.0,-99.9,44.89,WNW,296,5.0,15.0,-999,-99.99,,,-99.99,656.599976,,2013-05-15 23:00:00,
2013-05-15 16:52:00,58.0,-99.9,-100.00,WNW,296,5.0,15.0,-999,-99.99,,,-99.99,656.599976,,2013-05-15 23:52:00,
2013-05-15 17:00:00,54.0,-99.9,-100.00,North,-999,-999.0,-999.0,-999,-99.99,,,-99.99,,,2013-05-16 00:00:00,
2013-05-15 18:00:00,51.0,-99.9,44.89,WNW,289,5.0,18.0,-999,-99.99,,,0.00,314.700012,,2013-05-16 01:00:00,
2013-05-15 19:00:00,49.0,-99.9,44.89,WNW,286,5.0,14.0,-999,-99.99,,,0.00,11.600000,,2013-05-16 02:00:00,
2013-05-15 20:00:00,48.0,-99.9,44.89,WNW,285,3.0,11.0,-999,-99.99,,,0.00,1.800000,,2013-05-16 03:00:00,
2013-05-15 21:00:00,47.0,-99.9,44.89,WNW,290,4.0,14.0,-999,-99.99,,,0.00,0.000000,,2013-05-16 04:00:00,
2013-05-15 22:00:00,47.0,-99.9,44.89,WNW,289,5.0,13.0,-999,-99.99,,,-99.99,0.000000,,2013-05-16 05:00:00,
2013-05-15 23:00:00,46.0,-99.9,-100.00,WNW,287,4.0,12.0,-999,-99.99,,,-99.99,0.000000,,2013-05-16 06:00:00,
2013-05-15 23:43:00,46.0,-99.9,-100.00,WNW,287,4.0,12.0,-999,-99.99,,,-99.99,0.000000,,2013-05-16 06:43:00,
2013-05-15 23:53:00,46.0,-99.9,-100.00,WNW,287,4.0,12.0,-999,-99.99,,,-99.99,0.000000,,2013-05-16 06:53:00,